createdAt,value
2018-08-28T00:01:50.285Z,82.60
2018-08-28T00:04:55.738Z,83.50
2018-08-28T00:08:01.315Z,82.70
2018-08-28T00:11:07.417Z,82.90
2018-08-28T00:14:12.806Z,83.00
2018-08-28T00:17:18.204Z,82.90
2018-08-28T00:20:23.657Z,83.10
2018-08-28T00:23:29.130Z,83.10
2018-08-28T00:26:34.494Z,83.10
2018-08-28T00:29:40.274Z,83.30
2018-08-28T00:32:46.010Z,83.20
2018-08-28T00:35:51.361Z,83.20
2018-08-28T00:38:57.081Z,83.40
2018-08-28T00:42:02.515Z,83.20
2018-08-28T00:45:08.093Z,83.10
2018-08-28T00:48:13.578Z,83.10
2018-08-28T00:51:19.039Z,83.10
2018-08-28T00:54:24.462Z,83.20
2018-08-28T00:57:29.838Z,83.10
2018-08-28T01:00:46.694Z,83.10
2018-08-28T01:03:52.087Z,83.10
2018-08-28T01:06:57.433Z,83.00
2018-08-28T01:10:02.938Z,82.90
2018-08-28T01:13:08.430Z,83.00
2018-08-28T01:16:13.860Z,83.10
2018-08-28T01:19:19.233Z,83.00
2018-08-28T01:22:24.614Z,83.00
2018-08-28T01:25:30.018Z,83.20
2018-08-28T01:28:35.488Z,83.30
2018-08-28T01:31:41.195Z,83.10
2018-08-28T01:34:46.574Z,83.30
2018-08-28T01:37:52.244Z,83.30
2018-08-28T01:40:57.709Z,83.40
2018-08-28T01:44:03.113Z,83.50
2018-08-28T01:47:10.703Z,83.70
2018-08-28T01:50:16.454Z,83.80
2018-08-28T01:53:22.155Z,83.90
2018-08-28T01:56:27.546Z,84.10
2018-08-28T01:59:32.928Z,84.20
2018-08-28T02:02:38.625Z,84.20
2018-08-28T02:05:44.018Z,84.30
2018-08-28T02:08:49.478Z,84.30
2018-08-28T02:11:54.942Z,84.40
2018-08-28T02:15:00.354Z,84.50
2018-08-28T02:18:06.114Z,84.60
2018-08-28T02:21:11.537Z,84.50
2018-08-28T02:24:16.961Z,84.70
2018-08-28T02:27:22.330Z,84.70
2018-08-28T02:30:27.800Z,84.60
2018-08-28T02:33:33.266Z,84.60
2018-08-28T02:36:39.134Z,84.80
2018-08-28T02:39:44.631Z,85.00
2018-08-28T02:42:50.126Z,85.70
2018-08-28T02:45:55.569Z,85.00
2018-08-28T02:49:01.010Z,85.10
2018-08-28T02:52:06.862Z,85.00
2018-08-28T02:55:12.306Z,85.00
2018-08-28T02:58:17.773Z,84.90
2018-08-28T03:01:23.277Z,84.70
2018-08-28T03:04:28.677Z,84.90
2018-08-28T03:07:34.102Z,85.40
2018-08-28T03:10:39.538Z,85.60
2018-08-28T03:13:44.991Z,85.90
2018-08-28T03:16:50.470Z,86.20
2018-08-28T03:19:55.966Z,86.20
2018-08-28T03:23:01.375Z,86.40
2018-08-28T03:26:06.829Z,86.40
2018-08-28T03:29:13.128Z,86.20
2018-08-28T03:32:18.770Z,86.30
2018-08-28T03:35:24.198Z,86.40
2018-08-28T03:38:29.865Z,86.40
2018-08-28T03:41:35.405Z,86.20
2018-08-28T03:44:41.128Z,86.60
2018-08-28T03:47:46.742Z,86.10
2018-08-28T03:50:52.197Z,86.00
2018-08-28T03:53:57.580Z,86.00
2018-08-28T03:57:02.981Z,85.90
2018-08-28T04:00:08.830Z,85.90
2018-08-28T04:03:14.213Z,86.00
2018-08-28T04:06:19.716Z,85.40
2018-08-28T04:09:25.093Z,86.00
2018-08-28T04:12:30.592Z,86.10
2018-08-28T04:15:36.342Z,86.10
2018-08-28T04:18:41.710Z,86.10
2018-08-28T04:21:47.229Z,86.10
2018-08-28T04:24:52.619Z,85.90
2018-08-28T04:27:58.053Z,85.90
2018-08-28T04:31:03.553Z,86.70
2018-08-28T04:34:08.985Z,86.10
2018-08-28T04:37:14.479Z,86.10
2018-08-28T04:40:19.921Z,86.10
2018-08-28T04:43:25.370Z,86.10
2018-08-28T04:46:30.817Z,86.20
2018-08-28T04:49:36.237Z,86.20
2018-08-28T04:52:41.658Z,86.30
2018-08-28T04:55:47.060Z,86.40
2018-08-28T04:58:52.430Z,86.40
2018-08-28T05:01:57.923Z,86.30
2018-08-28T05:05:05.609Z,86.40
2018-08-28T05:08:11.009Z,86.30
2018-08-28T05:11:16.425Z,86.30
2018-08-28T05:14:21.789Z,86.20
2018-08-28T05:17:27.182Z,85.90
2018-08-28T05:20:32.677Z,85.90
2018-08-28T05:23:38.185Z,85.80
2018-08-28T05:26:44.181Z,85.60
2018-08-28T05:29:49.850Z,85.50
2018-08-28T05:32:55.330Z,85.30
2018-08-28T05:36:00.787Z,85.30
2018-08-28T05:39:07.726Z,85.40
2018-08-28T05:42:13.194Z,85.30
2018-08-28T05:45:18.637Z,85.20
2018-08-28T05:48:24.112Z,85.00
2018-08-28T05:51:31.359Z,84.80
2018-08-28T05:54:37.557Z,84.60
2018-08-28T05:57:43.036Z,84.50
2018-08-28T06:00:49.000Z,84.50
2018-08-28T06:03:55.039Z,84.40
2018-08-28T06:07:00.489Z,84.70
2018-08-28T06:10:06.370Z,84.60
2018-08-28T06:13:11.864Z,84.70
2018-08-28T06:16:17.334Z,85.00
2018-08-28T06:19:22.719Z,84.60
2018-08-28T06:22:28.215Z,84.40
2018-08-28T06:25:33.603Z,84.30
2018-08-28T06:28:39.688Z,84.10
2018-08-28T06:31:45.234Z,83.90
2018-08-28T06:34:50.645Z,84.00
2018-08-28T06:37:56.038Z,84.00
2018-08-28T06:41:01.671Z,84.10
2018-08-28T06:44:07.302Z,84.00
2018-08-28T06:47:12.773Z,83.80
2018-08-28T06:50:18.242Z,83.50
2018-08-28T06:53:23.786Z,83.50
2018-08-28T06:56:29.178Z,83.60
2018-08-28T06:59:34.621Z,83.80
2018-08-28T07:02:40.057Z,83.30
2018-08-28T07:05:45.501Z,82.90
2018-08-28T07:08:50.888Z,83.20
2018-08-28T07:11:56.657Z,82.70
2018-08-28T07:15:02.037Z,82.50
2018-08-28T07:18:07.446Z,82.70
2018-08-28T07:21:12.920Z,82.20
2018-08-28T07:24:18.805Z,82.80
2018-08-28T07:27:24.278Z,81.80
2018-08-28T07:30:29.667Z,81.90
2018-08-28T07:33:35.093Z,81.40
2018-08-28T07:36:40.517Z,81.40
2018-08-28T07:39:45.948Z,81.10
2018-08-28T07:42:51.379Z,81.20
2018-08-28T07:45:57.074Z,80.80
2018-08-28T07:49:02.445Z,80.90
2018-08-28T07:52:07.937Z,80.60
2018-08-28T07:55:13.314Z,79.70
2018-08-28T07:58:18.711Z,79.70
2018-08-28T08:01:24.255Z,79.50
2018-08-28T08:04:29.790Z,78.50
2018-08-28T08:07:35.269Z,78.80
2018-08-28T08:10:40.625Z,78.30
2018-08-28T08:13:46.066Z,78.00
2018-08-28T08:16:52.690Z,77.60
2018-08-28T08:19:58.098Z,77.70
2018-08-28T08:23:03.838Z,77.30
2018-08-28T08:26:09.575Z,77.00
2018-08-28T08:29:15.098Z,75.30
2018-08-28T08:32:20.444Z,74.90
2018-08-28T08:35:25.976Z,74.50
2018-08-28T08:38:31.514Z,73.30
2018-08-28T08:41:37.039Z,73.80
2018-08-28T08:44:42.487Z,73.20
2018-08-28T08:47:47.880Z,74.40
2018-08-28T08:50:53.265Z,73.20
2018-08-28T08:53:58.670Z,72.90
2018-08-28T08:57:04.017Z,72.90
2018-08-28T09:00:09.824Z,71.90
2018-08-28T09:03:17.317Z,71.10
2018-08-28T09:06:22.698Z,68.90
2018-08-28T09:09:28.167Z,68.10
2018-08-28T09:12:33.533Z,67.90
2018-08-28T09:15:38.906Z,68.30
2018-08-28T09:18:44.346Z,66.80
2018-08-28T09:21:50.540Z,67.70
2018-08-28T09:24:55.914Z,67.30
2018-08-28T09:28:01.257Z,66.00
2018-08-28T09:31:06.727Z,65.80
2018-08-28T09:34:12.301Z,65.00
2018-08-28T09:37:17.697Z,64.20
2018-08-28T09:40:23.150Z,63.60
2018-08-28T09:43:28.555Z,62.20
2018-08-28T09:46:33.989Z,62.30
2018-08-28T09:49:51.031Z,62.30
2018-08-28T09:52:57.198Z,62.30
2018-08-28T09:56:02.633Z,61.10
2018-08-28T09:59:08.358Z,60.50
2018-08-28T10:02:13.773Z,60.60
2018-08-28T10:05:19.157Z,61.20
2018-08-28T10:08:24.661Z,61.60
2018-08-28T10:11:30.315Z,60.80
2018-08-28T10:14:35.690Z,60.00
2018-08-28T10:17:41.399Z,59.70
2018-08-28T10:20:46.899Z,59.10
2018-08-28T10:23:52.568Z,58.50
2018-08-28T10:26:57.949Z,59.90
2018-08-28T10:30:04.458Z,59.80
2018-08-28T10:33:09.819Z,58.80
2018-08-28T10:36:15.830Z,57.10
2018-08-28T10:39:21.221Z,55.30
2018-08-28T10:42:26.606Z,55.30
2018-08-28T10:45:32.009Z,55.70
2018-08-28T10:48:38.415Z,56.20
2018-08-28T10:51:43.869Z,54.50
2018-08-28T10:54:49.530Z,54.60
2018-08-28T10:57:54.913Z,52.60
2018-08-28T11:01:00.445Z,53.50
2018-08-28T11:04:06.256Z,54.60
2018-08-28T11:07:11.645Z,55.10
2018-08-28T11:10:17.065Z,55.30
2018-08-28T11:13:22.478Z,55.00
2018-08-28T11:16:27.903Z,54.30
2018-08-28T11:19:33.681Z,54.80
2018-08-28T11:22:39.074Z,54.10
2018-08-28T11:25:44.500Z,54.50
2018-08-28T11:28:50.497Z,54.40
2018-08-28T11:31:55.889Z,53.40
2018-08-28T11:35:01.808Z,52.70
2018-08-28T11:38:07.190Z,53.70
2018-08-28T11:41:12.590Z,52.40
2018-08-28T11:44:17.945Z,52.10
2018-08-28T11:47:23.525Z,52.00
2018-08-28T11:50:28.936Z,50.80
2018-08-28T11:53:34.309Z,49.60
2018-08-28T11:56:40.059Z,49.70
2018-08-28T11:59:45.514Z,49.40
2018-08-28T12:02:50.913Z,49.10
2018-08-28T12:05:56.317Z,47.80
2018-08-28T12:09:01.709Z,48.90
2018-08-28T12:12:07.498Z,49.80
2018-08-28T12:15:12.946Z,50.20
2018-08-28T12:18:18.350Z,50.20
2018-08-28T12:21:23.862Z,51.20
2018-08-28T12:24:29.265Z,51.50
2018-08-28T12:27:34.820Z,51.60
2018-08-28T12:30:40.235Z,52.20
2018-08-28T12:33:45.756Z,53.20
2018-08-28T12:36:51.835Z,53.70
2018-08-28T12:39:57.390Z,53.20
2018-08-28T12:43:02.801Z,54.40
2018-08-28T12:46:08.785Z,54.60
2018-08-28T12:49:14.393Z,54.10
2018-08-28T12:52:19.821Z,52.80
2018-08-28T12:55:25.330Z,52.10
2018-08-28T12:58:30.746Z,52.30
2018-08-28T13:01:36.307Z,52.50
2018-08-28T13:04:41.898Z,52.30
2018-08-28T13:07:47.346Z,51.60
2018-08-28T13:10:52.761Z,51.00
2018-08-28T13:14:00.929Z,50.90
2018-08-28T13:17:07.383Z,50.00
2018-08-28T13:20:12.783Z,50.10
2018-08-28T13:23:18.209Z,50.70
2018-08-28T13:26:23.611Z,50.30
2018-08-28T13:29:29.053Z,50.60
2018-08-28T13:32:35.210Z,51.00
2018-08-28T13:35:40.643Z,51.10
2018-08-28T13:38:46.098Z,52.10
2018-08-28T13:41:51.526Z,51.40
2018-08-28T13:44:57.871Z,51.00
2018-08-28T13:48:03.269Z,50.90
2018-08-28T13:51:08.834Z,51.60
2018-08-28T13:54:14.260Z,52.50
2018-08-28T13:57:19.909Z,52.40
2018-08-28T14:00:25.375Z,53.20
2018-08-28T14:03:30.803Z,53.20
2018-08-28T14:06:36.230Z,53.40
2018-08-28T14:09:41.630Z,54.40
2018-08-28T14:12:47.083Z,53.20
2018-08-28T14:15:52.663Z,53.90
2018-08-28T14:19:09.777Z,53.30
2018-08-28T14:22:15.572Z,53.70
2018-08-28T14:25:21.158Z,54.20
2018-08-28T14:28:26.738Z,51.80
2018-08-28T14:31:32.146Z,52.00
2018-08-28T14:34:37.778Z,52.70
2018-08-28T14:37:43.202Z,52.80
2018-08-28T14:40:48.719Z,53.20
2018-08-28T14:43:54.658Z,52.60
2018-08-28T14:47:00.420Z,53.10
2018-08-28T14:50:07.303Z,52.70
2018-08-28T14:53:13.298Z,52.70
2018-08-28T14:56:18.714Z,52.80
2018-08-28T14:59:24.138Z,53.60
2018-08-28T15:02:29.569Z,53.60
2018-08-28T15:05:35.174Z,53.50
2018-08-28T15:08:40.586Z,53.10
2018-08-28T15:11:46.012Z,53.40
2018-08-28T15:14:51.434Z,53.40
2018-08-28T15:17:56.854Z,53.50
2018-08-28T15:21:02.377Z,53.90
2018-08-28T15:24:08.260Z,55.20
2018-08-28T15:27:13.783Z,55.20
2018-08-28T15:30:19.288Z,55.40
2018-08-28T15:33:26.765Z,55.70
2018-08-28T15:36:32.293Z,55.80
2018-08-28T15:39:37.698Z,55.60
2018-08-28T15:42:43.113Z,55.50
2018-08-28T15:45:48.513Z,56.10
2018-08-28T15:48:53.909Z,56.10
2018-08-28T15:51:59.356Z,55.10
2018-08-28T15:55:05.906Z,55.20
2018-08-28T15:58:11.346Z,54.90
2018-08-28T16:01:18.834Z,55.90
2018-08-28T16:04:24.243Z,55.60
2018-08-28T16:07:29.625Z,55.60
2018-08-28T16:10:35.038Z,55.40
2018-08-28T16:13:40.576Z,56.00
2018-08-28T16:16:46.709Z,55.70
2018-08-28T16:19:52.177Z,56.20
2018-08-28T16:23:00.045Z,55.40
2018-08-28T16:26:05.437Z,55.50
2018-08-28T16:29:11.290Z,55.00
2018-08-28T16:32:16.702Z,55.10
2018-08-28T16:35:22.142Z,54.90
2018-08-28T16:38:27.600Z,55.60
2018-08-28T16:41:33.008Z,55.30
2018-08-28T16:44:38.425Z,56.10
2018-08-28T16:47:43.806Z,56.00
2018-08-28T16:50:49.647Z,55.40
2018-08-28T16:53:55.076Z,55.70
2018-08-28T16:57:00.527Z,55.70
2018-08-28T17:00:06.303Z,56.20
2018-08-28T17:03:11.718Z,56.90
2018-08-28T17:06:17.142Z,57.80
2018-08-28T17:09:22.610Z,58.70
2018-08-28T17:12:28.083Z,59.30
2018-08-28T17:15:33.828Z,60.00
2018-08-28T17:18:39.244Z,60.30
2018-08-28T17:21:44.683Z,60.60
2018-08-28T17:24:50.131Z,60.50
2018-08-28T17:27:55.509Z,61.10
2018-08-28T17:31:00.998Z,61.10
2018-08-28T17:34:06.985Z,62.40
2018-08-28T17:37:12.512Z,61.60
2018-08-28T17:40:19.996Z,61.90
2018-08-28T17:43:37.581Z,62.60
2018-08-28T17:46:43.428Z,62.70
2018-08-28T17:49:50.982Z,62.20
2018-08-28T17:52:56.370Z,62.30
2018-08-28T17:56:01.802Z,62.40
2018-08-28T17:59:07.589Z,62.90
2018-08-28T18:02:13.003Z,63.10
2018-08-28T18:05:18.441Z,63.70
2018-08-28T18:08:24.218Z,63.70
2018-08-28T18:11:29.669Z,63.40
2018-08-28T18:14:35.109Z,63.80
2018-08-28T18:17:40.516Z,63.90
2018-08-28T18:20:46.026Z,64.30
2018-08-28T18:23:51.437Z,64.50
2018-08-28T18:26:56.866Z,65.50
2018-08-28T18:30:02.313Z,64.90
2018-08-28T18:33:07.714Z,65.20
2018-08-28T18:36:13.129Z,65.20
2018-08-28T18:39:18.536Z,65.50
2018-08-28T18:42:23.933Z,66.00
2018-08-28T18:45:29.418Z,66.40
2018-08-28T18:48:34.802Z,66.60
2018-08-28T18:51:40.658Z,66.90
2018-08-28T18:54:46.137Z,67.10
2018-08-28T18:57:51.805Z,68.30
2018-08-28T19:00:57.403Z,68.30
2018-08-28T19:04:03.317Z,68.50
2018-08-28T19:07:08.743Z,68.80
2018-08-28T19:10:14.487Z,68.60
2018-08-28T19:13:20.161Z,68.80
2018-08-28T19:16:25.643Z,69.10
2018-08-28T19:19:31.107Z,69.60
2018-08-28T19:22:36.514Z,69.80
2018-08-28T19:25:41.921Z,70.00
2018-08-28T19:28:47.299Z,70.00
2018-08-28T19:31:52.869Z,70.10
2018-08-28T19:34:58.440Z,70.50
2018-08-28T19:38:03.831Z,70.90
2018-08-28T19:41:09.448Z,71.00
2018-08-28T19:44:14.897Z,70.80
2018-08-28T19:47:20.453Z,70.90
2018-08-28T19:50:25.926Z,70.90
2018-08-28T19:53:32.430Z,71.50
2018-08-28T19:56:37.998Z,71.80
2018-08-28T19:59:43.506Z,72.10
2018-08-28T20:02:48.941Z,72.20
2018-08-28T20:05:54.476Z,71.80
2018-08-28T20:09:00.143Z,72.00
2018-08-28T20:12:05.605Z,72.30
2018-08-28T20:15:11.326Z,72.30
2018-08-28T20:18:16.706Z,72.60
2018-08-28T20:21:22.090Z,72.60
2018-08-28T20:24:27.475Z,72.40
2018-08-28T20:27:32.850Z,72.60
2018-08-28T20:30:38.225Z,73.10
2018-08-28T20:33:43.590Z,73.40
2018-08-28T20:36:48.949Z,73.60
2018-08-28T20:39:54.309Z,73.50
2018-08-28T20:42:59.698Z,73.20
2018-08-28T20:46:05.118Z,73.70
2018-08-28T20:49:10.474Z,72.60
2018-08-28T20:52:15.864Z,73.30
2018-08-28T20:55:21.266Z,73.60
2018-08-28T20:58:26.704Z,73.50
2018-08-28T21:01:32.385Z,73.10
2018-08-28T21:04:37.734Z,72.90
2018-08-28T21:07:43.106Z,72.20
2018-08-28T21:10:48.582Z,72.50
2018-08-28T21:13:54.007Z,72.40
2018-08-28T21:16:59.469Z,72.90
2018-08-28T21:20:05.207Z,73.00
2018-08-28T21:23:10.606Z,73.10
2018-08-28T21:26:16.620Z,72.10
2018-08-28T21:29:22.817Z,72.70
2018-08-28T21:32:28.802Z,72.70
2018-08-28T21:35:34.314Z,72.70
2018-08-28T21:38:40.065Z,72.50
2018-08-28T21:41:45.558Z,72.90
2018-08-28T21:44:51.115Z,73.10
2018-08-28T21:47:56.498Z,72.30
2018-08-28T21:51:02.469Z,71.80
2018-08-28T21:54:07.888Z,71.80
2018-08-28T21:57:13.378Z,71.80
2018-08-28T22:00:19.112Z,71.80
2018-08-28T22:03:24.486Z,72.10
2018-08-28T22:06:35.046Z,71.90
2018-08-28T22:09:41.282Z,71.90
2018-08-28T22:12:46.702Z,72.20
2018-08-28T22:15:52.073Z,72.80
2018-08-28T22:18:57.902Z,73.00
2018-08-28T22:22:03.393Z,72.70
2018-08-28T22:25:09.357Z,73.20
2018-08-28T22:28:15.145Z,73.30
2018-08-28T22:31:20.944Z,73.30
2018-08-28T22:34:26.747Z,73.60
2018-08-28T22:37:32.190Z,74.50
2018-08-28T22:40:37.710Z,74.10
2018-08-28T22:43:43.089Z,74.60
2018-08-28T22:46:48.458Z,75.00
2018-08-28T22:49:53.938Z,75.20
2018-08-28T22:52:59.926Z,75.60
2018-08-28T22:56:05.886Z,75.80
2018-08-28T22:59:11.286Z,76.00
2018-08-28T23:02:16.889Z,76.10
2018-08-28T23:05:22.649Z,76.40
2018-08-28T23:08:28.118Z,76.50
2018-08-28T23:11:33.561Z,76.60
2018-08-28T23:14:38.989Z,77.10
2018-08-28T23:17:44.449Z,78.40
2018-08-28T23:20:49.925Z,77.70
2018-08-28T23:23:56.837Z,77.80
2018-08-28T23:27:02.572Z,78.00
2018-08-28T23:30:08.646Z,78.30
2018-08-28T23:33:14.106Z,78.40
2018-08-28T23:36:19.450Z,78.60
2018-08-28T23:39:24.818Z,79.00
2018-08-28T23:42:30.453Z,79.20
2018-08-28T23:45:36.010Z,79.20
2018-08-28T23:48:41.877Z,79.00
2018-08-28T23:51:47.253Z,80.00
2018-08-28T23:54:52.706Z,80.10
2018-08-28T23:57:58.057Z,80.20
